Time;durP1;ratioP1;P1;durP2;ratioP2;P2;SDS_P1;SDS_P2;PMS_P1;PMS_P2;Temp;Humidity;BMP_temperature;BMP_pressure;BME280_temperature;BME280_humidity;BME280_pressure;Samples;Min_cycle;Max_cycle;Signal;HPM_P1;HPM_P2
2023/06/08 00:01:35;;;;;;;7.25;6.55;;;;;;;18.45;72.29;99022.72;5147253;27;20045;-75
2023/06/08 00:04:05;;;;;;;8.93;5.97;;;;;;;18.44;72.24;99007.59;5146929;27;20106;-75
2023/06/08 00:06:34;;;;;;;24.48;7.05;;;;;;;18.03;72.13;98965.84;5146110;27;20123;-76
2023/06/08 00:09:04;;;;;;;7.00;5.95;;;;;;;18.41;72.35;99020.44;5147314;27;20043;-75
2023/06/08 00:11:31;;;;;;;6.80;6.10;;;;;;;18.17;71.98;98976.13;5146195;27;20039;-76
2023/06/08 00:13:58;;;;;;;7.18;6.20;;;;;;;18.39;72.11;99023.28;5146176;27;20322;-76
2023/06/08 00:16:25;;;;;;;6.97;6.28;;;;;;;18.36;72.23;99022.72;5146142;27;20039;-75
2023/06/08 00:18:54;;;;;;;6.97;5.65;;;;;;;18.34;72.43;99020.16;5147467;27;20069;-75
2023/06/08 00:21:22;;;;;;;7.40;5.72;;;;;;;18.31;72.20;99009.72;5147470;27;20039;-75
2023/06/08 00:23:50;;;;;;;7.32;5.85;;;;;;;16.83;72.49;98778.56;5145716;27;20043;-76
2023/06/08 00:26:17;;;;;;;7.38;6.53;;;;;;;18.26;72.46;99020.88;5146858;27;20098;-75
2023/06/08 00:28:48;;;;;;;7.25;6.22;;;;;;;18.21;72.44;99007.03;5146988;27;20046;-76
2023/06/08 00:31:15;;;;;;;7.82;5.88;;;;;;;17.47;72.35;98888.75;5146489;27;20047;-75
2023/06/08 00:33:42;;;;;;;6.68;6.00;;;;;;;17.84;72.25;98947.91;5145822;27;20043;-75
2023/06/08 00:36:08;;;;;;;6.88;6.28;;;;;;;18.19;72.60;99014.38;5145945;27;20207;-75
2023/06/08 00:38:35;;;;;;;7.80;6.65;;;;;;;18.18;72.22;99017.22;5147240;27;20049;-74
2023/06/08 00:41:03;;;;;;;10.07;6.60;;;;;;;18.13;72.40;99012.28;5146659;27;20035;-75
2023/06/08 00:43:30;;;;;;;7.28;5.93;;;;;;;18.11;72.51;99008.88;5146856;28;20055;-75
2023/06/08 00:45:57;;;;;;;8.90;6.75;;;;;;;18.10;72.06;99001.81;5146843;28;20069;-75
2023/06/08 00:48:25;;;;;;;7.00;6.30;;;;;;;18.09;72.26;99004.66;5145647;28;20031;-75
2023/06/08 00:50:52;;;;;;;6.70;5.30;;;;;;;17.96;72.38;98978.09;5145655;28;20123;-75
2023/06/08 00:53:20;;;;;;;6.03;5.20;;;;;;;18.06;72.40;98996.88;5147101;28;20050;-75
2023/06/08 00:55:50;;;;;;;5.97;5.07;;;;;;;18.03;72.06;98995.31;5145663;28;20047;-76
2023/06/08 00:58:19;;;;;;;6.30;5.70;;;;;;;18.03;72.38;99000.69;5146501;28;20199;-75
2023/06/08 01:00:47;;;;;;;10.30;6.38;;;;;;;18.03;72.41;99003.38;5147010;28;20047;-75
2023/06/08 01:03:15;;;;;;;9.18;5.93;;;;;;;18.02;72.23;99004.34;5146125;28;20203;-76
2023/06/08 01:05:43;;;;;;;5.93;5.30;;;;;;;17.99;71.99;99001.97;5145596;28;20039;-75
2023/06/08 01:08:19;;;;;;;6.00;4.93;;;;;;;17.93;72.71;99006.03;5146629;28;20042;-75
2023/06/08 01:10:53;;;;;;;5.30;4.80;;;;;;;17.93;72.51;99006.03;5146389;28;20329;-75
2023/06/08 01:13:26;;;;;;;5.45;4.57;;;;;;;17.92;72.26;99004.34;5146430;28;20051;-75
2023/06/08 01:15:59;;;;;;;5.28;4.78;;;;;;;17.89;72.55;98999.25;5146633;28;20036;-75
2023/06/08 01:18:32;;;;;;;6.40;4.63;;;;;;;17.89;72.65;98991.22;5145367;28;20123;-75
2023/06/08 01:21:11;;;;;;;7.53;5.10;;;;;;;17.88;72.92;99004.75;5146145;28;20043;-75
2023/06/08 01:23:54;;;;;;;7.13;4.72;;;;;;;17.86;72.58;99004.06;5146517;28;20172;-75
2023/06/08 01:26:21;;;;;;;5.30;4.80;;;;;;;17.83;72.60;98994.47;5145341;28;20035;-75
2023/06/08 01:28:49;;;;;;;5.80;5.18;;;;;;;17.84;73.10;98992.63;5146030;28;20035;-75
2023/06/08 01:31:16;;;;;;;5.00;4.50;;;;;;;17.83;72.98;98988.25;5146487;27;20110;-75
2023/06/08 01:33:43;;;;;;;7.18;5.60;;;;;;;17.83;73.12;98991.78;5146158;28;20043;-75
2023/06/08 01:36:16;;;;;;;5.53;4.88;;;;;;;17.79;72.82;98993.03;5146421;28;20085;-75
2023/06/08 01:38:52;;;;;;;6.72;5.80;;;;;;;17.80;73.39;98991.22;5145886;28;20080;-75
2023/06/08 01:41:24;;;;;;;6.43;5.38;;;;;;;17.74;73.10;98989.09;5145279;28;20039;-75
2023/06/08 01:43:53;;;;;;;8.02;4.82;;;;;;;17.74;72.94;98989.09;5147941;27;20250;-75
2023/06/08 01:46:21;;;;;;;6.05;5.15;;;;;;;17.71;73.34;98979.50;5150104;27;20057;-75
2023/06/08 01:48:50;;;;;;;5.93;5.32;;;;;;;17.34;73.50;98925.66;5149411;27;20046;-75
2023/06/08 01:51:18;;;;;;;9.57;5.15;;;;;;;17.59;73.48;98965.34;5150325;27;20035;-75
2023/06/08 01:53:45;;;;;;;6.30;5.22;;;;;;;17.71;73.46;98989.38;5149851;27;20233;-75
2023/06/08 01:56:11;;;;;;;5.97;5.38;;;;;;;17.71;73.42;98984.00;5148783;27;20043;-75
2023/06/08 01:58:40;;;;;;;6.68;4.93;;;;;;;17.68;73.44;98982.44;5148801;27;20310;-75
2023/06/08 02:01:06;;;;;;;5.65;5.10;;;;;;;17.63;73.19;98979.34;5150219;27;20066;-75
2023/06/08 02:03:33;;;;;;;6.88;5.70;;;;;;;17.63;73.42;98972.16;5150111;27;20035;-75
2023/06/08 02:06:00;;;;;;;6.15;5.55;;;;;;;17.63;73.10;98971.31;5148637;27;20291;-75
2023/06/08 02:08:26;;;;;;;6.70;6.10;;;;;;;17.60;72.95;98976.91;5149651;27;20299;-75
2023/06/08 02:10:53;;;;;;;7.35;5.93;;;;;;;17.55;73.08;98973.78;5149955;27;20039;-75
2023/06/08 02:13:20;;;;;;;6.47;5.32;;;;;;;17.53;73.57;98979.28;5150180;27;20149;-75
2023/06/08 02:15:48;;;;;;;6.07;5.47;;;;;;;17.50;73.55;98979.56;5149545;27;20184;-75
2023/06/08 02:18:15;;;;;;;6.57;5.15;;;;;;;17.48;73.70;98973.50;5149201;27;20031;-75
2023/06/08 02:20:42;;;;;;;5.95;5.07;;;;;;;17.48;73.56;98975.31;5149444;27;20049;-75
2023/06/08 02:23:08;;;;;;;5.78;5.18;;;;;;;17.46;73.79;98982.66;5148311;27;20174;-75
2023/06/08 02:25:35;;;;;;;6.32;5.70;;;;;;;17.45;73.80;98976.44;5149103;27;20100;-75
2023/06/08 02:28:02;;;;;;;5.97;5.00;;;;;;;17.45;73.68;98989.00;5149019;27;20287;-75
2023/06/08 02:30:29;;;;;;;6.13;5.53;;;;;;;17.43;73.45;98985.59;5149659;27;20306;-75
2023/06/08 02:32:57;;;;;;;6.90;5.97;;;;;;;17.38;74.00;98980.66;5148990;27;20039;-75
2023/06/08 02:35:23;;;;;;;7.47;6.32;;;;;;;17.35;73.84;98986.28;5149103;27;20043;-75
2023/06/08 02:37:50;;;;;;;6.07;5.50;;;;;;;17.34;73.80;98986.41;5149396;27;20054;-75
2023/06/08 02:40:17;;;;;;;6.03;5.43;;;;;;;17.36;73.49;98985.31;5148851;27;20035;-75
2023/06/08 02:42:44;;;;;;;6.50;5.90;;;;;;;17.38;73.51;98975.31;5148765;27;20106;-75
2023/06/08 02:45:15;;;;;;;6.13;5.47;;;;;;;17.38;72.97;98982.50;5148622;27;20311;-79
2023/06/08 02:47:42;;;;;;;7.88;7.10;;;;;;;17.37;73.39;98986.16;5148079;27;20036;-75
2023/06/08 02:50:10;;;;;;;8.57;6.60;;;;;;;17.29;73.33;98992.19;5149206;27;20043;-74
2023/06/08 02:52:37;;;;;;;7.85;6.55;;;;;;;17.28;73.63;98982.47;5149196;27;20104;-75
2023/06/08 02:55:05;;;;;;;6.35;5.75;;;;;;;17.30;73.51;98985.84;5148977;27;20054;-75
2023/06/08 02:57:32;;;;;;;6.70;6.10;;;;;;;17.28;73.08;98979.78;5149125;27;20039;-75
2023/06/08 02:59:59;;;;;;;7.70;6.05;;;;;;;17.24;73.67;98984.56;5147587;27;20039;-75
2023/06/08 03:02:27;;;;;;;7.15;6.22;;;;;;;17.22;73.48;98981.16;5148494;27;20348;-75
2023/06/08 03:04:58;;;;;;;6.47;5.88;;;;;;;17.19;73.89;98984.09;5148335;27;20039;-75
2023/06/08 03:07:27;;;;;;;8.27;6.40;;;;;;;17.20;73.55;98983.13;5147451;27;20082;-75
2023/06/08 03:09:53;;;;;;;7.25;6.30;;;;;;;17.20;73.84;98990.28;5148252;27;20244;-75
2023/06/08 03:12:20;;;;;;;6.75;6.15;;;;;;;17.20;73.68;98988.50;5147391;27;20034;-75
2023/06/08 03:14:48;;;;;;;7.47;6.78;;;;;;;17.19;73.35;98977.88;5148450;27;20210;-75
2023/06/08 03:17:17;;;;;;;6.97;6.38;;;;;;;17.14;73.54;98980.13;5148077;27;20067;-75
2023/06/08 03:19:44;;;;;;;8.07;7.13;;;;;;;17.13;73.74;98986.44;5147208;27;20080;-75
2023/06/08 03:22:10;;;;;;;7.38;6.68;;;;;;;16.79;73.74;98924.31;5148069;27;20096;-75
2023/06/08 03:24:39;;;;;;;7.88;6.30;;;;;;;17.02;73.68;98957.09;5148486;27;20050;-75
2023/06/08 03:27:06;;;;;;;7.43;6.72;;;;;;;17.08;73.86;98976.16;5148147;27;20325;-75
2023/06/08 03:29:33;;;;;;;6.82;5.93;;;;;;;17.10;73.86;98981.38;5147746;27;20042;-75
2023/06/08 03:32:01;;;;;;;7.40;6.65;;;;;;;17.11;73.90;98986.59;5147831;27;20043;-75
2023/06/08 03:34:29;;;;;;;7.60;6.80;;;;;;;16.59;74.15;98892.09;5147974;27;20035;-74
2023/06/08 03:36:56;;;;;;;8.25;7.45;;;;;;;17.13;74.31;98978.44;5148279;27;20102;-75
2023/06/08 03:39:23;;;;;;;7.85;7.15;;;;;;;17.12;74.33;98971.38;5147926;27;20035;-75
2023/06/08 03:41:52;;;;;;;8.18;7.35;;;;;;;17.12;74.41;98982.09;5147930;27;20118;-75
2023/06/08 03:44:19;;;;;;;7.55;6.85;;;;;;;17.13;74.52;98983.78;5146582;27;20051;-75
2023/06/08 03:46:46;;;;;;;8.32;7.60;;;;;;;17.12;74.16;98974.06;5147790;27;20379;-75
2023/06/08 03:49:12;;;;;;;8.98;8.05;;;;;;;17.12;74.37;98980.25;5147397;27;20031;-75
2023/06/08 03:51:40;;;;;;;8.43;7.63;;;;;;;16.81;74.50;98925.88;5147723;27;20241;-75
2023/06/08 03:54:07;;;;;;;7.50;6.80;;;;;;;17.14;74.55;98975.59;5147380;27;20096;-75
2023/06/08 03:56:33;;;;;;;9.32;8.40;;;;;;;17.15;74.62;98977.31;5146471;27;20114;-75
2023/06/08 03:59:02;;;;;;;8.38;7.03;;;;;;;17.17;74.74;98982.53;5146993;27;20043;-75
2023/06/08 04:01:30;;;;;;;8.38;7.45;;;;;;;17.15;74.88;98984.50;5147818;27;20303;-74
2023/06/08 04:03:57;;;;;;;8.63;7.50;;;;;;;17.15;74.85;98982.66;5146338;27;20207;-75
2023/06/08 04:06:24;;;;;;;7.53;6.82;;;;;;;17.14;75.05;98983.66;5146309;27;20298;-75
2023/06/08 04:08:51;;;;;;;7.85;6.70;;;;;;;17.00;75.22;98973.31;5146193;27;20039;-75
2023/06/08 04:11:18;;;;;;;7.80;6.93;;;;;;;17.13;75.19;98979.28;5147360;27;20080;-75
2023/06/08 04:13:45;;;;;;;7.65;6.70;;;;;;;17.15;74.83;98985.34;5147272;27;20043;-75
2023/06/08 04:16:14;;;;;;;7.30;6.18;;;;;;;17.16;74.68;98988.88;5146189;27;20127;-75
2023/06/08 04:18:41;;;;;;;7.40;6.55;;;;;;;17.17;74.90;98979.84;5146177;27;20063;-75
2023/06/08 04:21:08;;;;;;;6.50;5.90;;;;;;;16.61;74.91;98898.16;5147254;27;20287;-75
2023/06/08 04:23:36;;;;;;;7.20;6.00;;;;;;;17.18;74.60;98986.91;5146043;27;20031;-75
2023/06/08 04:26:03;;;;;;;7.40;6.70;;;;;;;17.18;74.30;98977.03;5147454;27;20049;-75
2023/06/08 04:28:30;;;;;;;6.63;6.03;;;;;;;17.18;74.44;98986.91;5147420;27;20031;-75
2023/06/08 04:30:59;;;;;;;6.70;6.07;;;;;;;17.20;74.58;98980.47;5147101;27;20099;-75
2023/06/08 04:33:28;;;;;;;6.28;5.63;;;;;;;16.64;74.38;98881.84;5145833;27;20348;-75
2023/06/08 04:35:55;;;;;;;7.53;5.90;;;;;;;17.22;74.63;98983.00;5147088;27;20065;-75
2023/06/08 04:38:21;;;;;;;6.15;5.53;;;;;;;17.24;74.34;98986.38;5147309;27;20043;-75
2023/06/08 04:40:49;;;;;;;7.18;5.05;;;;;;;17.25;74.43;98983.56;5145620;27;20100;-75
2023/06/08 04:43:17;;;;;;;6.97;6.28;;;;;;;17.26;74.17;98987.94;5146925;27;20035;-75
2023/06/08 04:45:45;;;;;;;6.40;5.60;;;;;;;17.30;74.08;98988.53;5146865;28;20110;-75
2023/06/08 04:48:12;;;;;;;7.03;5.93;;;;;;;17.34;74.31;98997.13;5146542;28;20062;-75
2023/06/08 04:50:45;;;;;;;6.68;5.88;;;;;;;16.94;73.81;98925.66;5146651;28;20303;-75
2023/06/08 04:53:12;;;;;;;6.97;6.28;;;;;;;17.37;74.25;98989.69;5147042;27;20039;-75
2023/06/08 04:55:45;;;;;;;7.22;6.53;;;;;;;17.37;74.40;98992.34;5147059;28;20057;-75
2023/06/08 04:58:12;;;;;;;7.03;6.32;;;;;;;17.05;74.32;98952.31;5146831;27;20051;-75
2023/06/08 05:00:39;;;;;;;6.80;6.20;;;;;;;17.41;73.98;98999.13;5145636;28;20027;-75
2023/06/08 05:03:06;;;;;;;6.18;5.57;;;;;;;17.45;74.19;98997.88;5147044;27;20053;-75
2023/06/08 05:05:33;;;;;;;5.40;4.90;;;;;;;17.47;74.22;98998.59;5147005;28;20053;-75
2023/06/08 05:08:01;;;;;;;6.20;5.70;;;;;;;17.48;73.82;99008.31;5146439;27;20043;-75
2023/06/08 05:10:27;;;;;;;7.15;6.53;;;;;;;17.51;73.94;99012.56;5146367;28;20035;-75
2023/06/08 05:12:56;;;;;;;7.22;5.80;;;;;;;17.53;74.22;99003.41;5146419;28;20051;-75
2023/06/08 05:15:23;;;;;;;6.13;5.53;;;;;;;17.55;74.20;99012.16;5146040;28;20043;-75
2023/06/08 05:17:51;;;;;;;6.95;6.25;;;;;;;17.58;73.76;98998.47;5146740;27;20213;-75
2023/06/08 05:20:18;;;;;;;7.88;6.55;;;;;;;17.48;73.62;98980.69;5150681;27;20047;-75
2023/06/08 05:22:45;;;;;;;7.28;6.57;;;;;;;17.63;73.53;99004.31;5150337;27;20043;-75
2023/06/08 05:25:13;;;;;;;7.68;6.10;;;;;;;17.67;73.90;99010.22;5149471;27;20042;-75
2023/06/08 05:27:40;;;;;;;7.28;6.57;;;;;;;17.68;73.96;99011.94;5149396;27;20184;-75
2023/06/08 05:30:08;;;;;;;7.68;6.60;;;;;;;17.47;73.74;98965.59;5150010;27;20072;-75
2023/06/08 05:32:35;;;;;;;8.25;7.07;;;;;;;17.71;73.87;99000.94;5150432;27;20042;-75
2023/06/08 05:35:02;;;;;;;7.28;6.63;;;;;;;17.74;74.12;99007.84;5150692;27;20057;-75
2023/06/08 05:37:28;;;;;;;8.52;7.72;;;;;;;17.76;74.16;99013.91;5150046;27;20303;-75
2023/06/08 05:39:55;;;;;;;7.95;7.15;;;;;;;17.78;74.17;99011.94;5150285;27;20291;-75
2023/06/08 05:42:23;;;;;;;8.70;7.90;;;;;;;17.78;74.16;99006.59;5150265;27;20047;-75
2023/06/08 05:44:50;;;;;;;8.48;6.47;;;;;;;17.81;74.03;99009.00;5149768;27;20329;-75
2023/06/08 05:47:17;;;;;;;7.13;6.43;;;;;;;17.83;73.59;99013.22;5149905;27;20035;-75
2023/06/08 05:49:44;;;;;;;7.13;6.50;;;;;;;17.82;73.86;99011.53;5148903;27;20039;-75
2023/06/08 05:52:11;;;;;;;8.52;7.72;;;;;;;17.84;73.86;99014.91;5150359;27;20035;-75
2023/06/08 05:54:38;;;;;;;7.40;6.72;;;;;;;17.86;73.89;99020.16;5150046;27;20050;-75
2023/06/08 05:57:05;;;;;;;7.78;7.07;;;;;;;17.89;73.76;99019.88;5150258;27;20108;-75
2023/06/08 05:59:33;;;;;;;7.82;6.78;;;;;;;17.91;73.76;99020.56;5150222;27;20053;-75
2023/06/08 06:02:00;;;;;;;8.63;6.70;;;;;;;17.93;73.50;99016.78;5149865;27;20180;-75
2023/06/08 06:04:27;;;;;;;7.88;7.10;;;;;;;17.97;73.50;99013.81;5150072;27;20055;-75
2023/06/08 06:06:53;;;;;;;8.60;7.78;;;;;;;17.98;73.23;99015.50;5149225;27;20054;-75
2023/06/08 06:09:20;;;;;;;8.32;7.28;;;;;;;17.98;73.42;99019.03;5149346;27;20039;-75
2023/06/08 06:11:48;;;;;;;8.98;7.43;;;;;;;17.95;73.46;99016.63;5149425;27;20047;-75
2023/06/08 06:14:14;;;;;;;8.05;7.32;;;;;;;17.97;73.41;99025.38;5149555;27;20046;-75
2023/06/08 06:16:43;;;;;;;8.88;7.32;;;;;;;17.99;73.37;99015.38;5149905;27;20035;-75
2023/06/08 06:19:09;;;;;;;8.98;6.88;;;;;;;18.03;73.69;99015.94;5148465;27;20035;-75
2023/06/08 06:21:36;;;;;;;8.48;7.40;;;;;;;16.04;73.45;98677.66;5149828;27;20077;-75
2023/06/08 06:24:03;;;;;;;9.40;7.80;;;;;;;18.12;73.49;99015.94;5149491;27;20190;-75
2023/06/08 06:26:30;;;;;;;9.18;8.27;;;;;;;18.14;73.41;99022.00;5149141;27;20047;-75
2023/06/08 06:28:57;;;;;;;10.05;8.98;;;;;;;18.16;73.56;99016.50;5149065;27;20031;-75
2023/06/08 06:31:24;;;;;;;9.85;8.95;;;;;;;18.17;73.48;99027.09;5149568;27;20057;-75
2023/06/08 06:33:52;;;;;;;9.90;8.90;;;;;;;18.00;73.36;98989.41;5149567;27;20058;-75
2023/06/08 06:36:18;;;;;;;8.93;8.02;;;;;;;18.24;73.59;99027.38;5148946;27;20084;-75
2023/06/08 06:38:45;;;;;;;9.18;8.38;;;;;;;18.26;73.57;99026.25;5148851;27;20303;-75
2023/06/08 06:41:12;;;;;;;11.50;10.32;;;;;;;18.28;73.31;99026.94;5149181;27;20080;-75
2023/06/08 06:43:39;;;;;;;10.07;9.10;;;;;;;18.29;73.39;99025.13;5148592;27;20074;-75
2023/06/08 06:46:06;;;;;;;9.20;8.30;;;;;;;18.32;73.45;99023.97;5149026;27;20335;-75
2023/06/08 06:48:33;;;;;;;9.50;8.60;;;;;;;18.32;73.61;99018.63;5149220;27;20096;-75
2023/06/08 06:51:01;;;;;;;11.45;10.07;;;;;;;18.34;73.80;99022.00;5148590;27;20041;-75
2023/06/08 06:53:27;;;;;;;13.93;10.18;;;;;;;18.12;73.37;98983.75;5148566;27;20039;-75
2023/06/08 06:55:54;;;;;;;10.68;9.73;;;;;;;18.35;73.74;99008.44;5149127;27;20047;-75
2023/06/08 06:58:22;;;;;;;9.27;8.25;;;;;;;18.40;73.45;99021.44;5147660;27;20039;-75
2023/06/08 07:00:49;;;;;;;9.75;8.60;;;;;;;18.45;73.65;99021.84;5148786;27;20204;-75
2023/06/08 07:03:16;;;;;;;10.18;9.23;;;;;;;18.55;73.47;99017.38;5148647;27;20088;-75
2023/06/08 07:05:45;;;;;;;9.93;8.93;;;;;;;18.19;73.10;98935.75;5148677;27;20179;-75
2023/06/08 07:08:13;;;;;;;8.85;7.90;;;;;;;18.72;73.21;99013.09;5148344;27;20332;-75
2023/06/08 07:10:40;;;;;;;9.75;8.75;;;;;;;18.69;72.95;98990.06;5148500;27;20347;-75
2023/06/08 07:13:06;;;;;;;11.55;10.38;;;;;;;18.90;72.55;99014.03;5148738;27;20265;-75
2023/06/08 07:15:33;;;;;;;9.27;7.95;;;;;;;18.99;72.56;99007.78;5148479;27;20283;-75
2023/06/08 07:18:00;;;;;;;9.77;8.88;;;;;;;19.11;72.07;99009.31;5147321;27;20039;-75
2023/06/08 07:20:27;;;;;;;10.02;9.10;;;;;;;19.18;71.45;99006.88;5148277;27;20046;-75
2023/06/08 07:22:53;;;;;;;14.07;8.70;;;;;;;19.26;71.51;99004.31;5147376;27;20043;-75
2023/06/08 07:25:21;;;;;;;10.98;9.27;;;;;;;19.36;71.20;99006.94;5147101;27;20039;-75
2023/06/08 07:27:48;;;;;;;9.80;8.88;;;;;;;19.46;70.70;99003.25;5148253;27;20053;-75
2023/06/08 07:30:15;;;;;;;10.20;9.15;;;;;;;19.54;70.46;98989.06;5147906;27;20115;-75
2023/06/08 07:32:44;;;;;;;10.40;9.40;;;;;;;19.69;70.13;98989.41;5146974;27;20307;-75
2023/06/08 07:35:11;;;;;;;12.00;10.88;;;;;;;19.91;69.77;98991.69;5147726;27;20035;-75
2023/06/08 07:37:37;;;;;;;12.70;10.57;;;;;;;20.14;69.25;98986.69;5147861;27;20360;-75
2023/06/08 07:40:06;;;;;;;10.35;9.35;;;;;;;20.33;68.44;98983.03;5148089;27;20039;-75
2023/06/08 07:42:34;;;;;;;9.07;8.10;;;;;;;20.11;68.16;98944.81;5147043;27;20039;-75
2023/06/08 07:45:01;;;;;;;9.82;8.82;;;;;;;20.20;68.21;98961.88;5147274;27;20089;-75
2023/06/08 07:47:28;;;;;;;10.73;9.63;;;;;;;20.33;68.45;98988.41;5146560;27;20035;-75
2023/06/08 07:49:55;;;;;;;10.45;9.48;;;;;;;20.12;68.33;98949.19;5147412;27;20283;-75
2023/06/08 07:52:22;;;;;;;11.32;10.15;;;;;;;20.35;68.26;98984.56;5147497;27;20050;-75
2023/06/08 07:54:49;;;;;;;11.20;10.15;;;;;;;20.40;67.92;98986.78;5147295;27;20039;-75
2023/06/08 07:57:16;;;;;;;11.27;9.80;;;;;;;20.43;67.87;98990.00;5147476;27;20035;-75
2023/06/08 07:59:44;;;;;;;10.75;9.68;;;;;;;20.48;67.72;98989.53;5146372;27;20130;-75
2023/06/08 08:02:10;;;;;;;11.48;9.70;;;;;;;20.52;66.94;98993.59;5147430;27;20256;-75
2023/06/08 08:04:37;;;;;;;10.55;9.48;;;;;;;20.52;66.81;98984.69;5147687;27;20232;-75
2023/06/08 08:07:04;;;;;;;10.68;9.68;;;;;;;20.56;66.49;98986.06;5147358;27;20088;-75
2023/06/08 08:09:31;;;;;;;10.13;9.15;;;;;;;20.59;67.11;98996.53;5147566;27;20047;-75
2023/06/08 08:11:58;;;;;;;11.18;10.07;;;;;;;20.64;66.70;98983.44;5146176;27;20035;-75
2023/06/08 08:14:25;;;;;;;12.35;11.15;;;;;;;20.68;66.55;98984.81;5147146;27;20043;-75
2023/06/08 08:16:53;;;;;;;12.60;11.30;;;;;;;20.64;66.40;98968.13;5146940;27;20070;-75
2023/06/08 08:19:20;;;;;;;13.13;11.82;;;;;;;20.79;66.44;98985.38;5146798;27;20050;-75
2023/06/08 08:21:47;;;;;;;15.30;13.80;;;;;;;20.82;66.51;98993.16;5147387;27;20186;-74
2023/06/08 08:24:14;;;;;;;16.13;13.55;;;;;;;20.83;66.34;98991.31;5147344;27;20055;-75
2023/06/08 08:26:41;;;;;;;14.80;12.90;;;;;;;20.82;66.60;98992.31;5146782;27;20035;-75
2023/06/08 08:29:08;;;;;;;16.25;14.68;;;;;;;20.53;66.66;98938.78;5146596;27;20362;-75
2023/06/08 08:31:35;;;;;;;14.25;12.75;;;;;;;20.86;66.62;98992.84;5145789;27;20122;-75
2023/06/08 08:34:03;;;;;;;16.30;14.70;;;;;;;20.89;66.52;98995.22;5146725;27;20106;-75
2023/06/08 08:36:30;;;;;;;15.80;13.90;;;;;;;20.91;66.39;98993.22;5147215;27;20049;-75
2023/06/08 08:38:57;;;;;;;15.02;13.50;;;;;;;21.01;66.47;98985.84;5146554;27;20047;-75
2023/06/08 08:41:26;;;;;;;16.60;14.85;;;;;;;21.08;65.83;98989.63;5146565;27;20046;-74
2023/06/08 08:44:00;;;;;;;16.10;14.45;;;;;;;21.17;65.39;98983.28;5146519;27;20065;-75
2023/06/08 08:46:28;;;;;;;18.23;14.30;;;;;;;21.22;65.27;98990.88;5147118;27;20047;-75
2023/06/08 08:48:58;;;;;;;16.42;14.68;;;;;;;21.24;64.92;98992.41;5147127;28;20043;-75
2023/06/08 08:51:28;;;;;;;14.13;12.73;;;;;;;21.21;64.98;98981.97;5147013;28;20035;-75
2023/06/08 08:53:57;;;;;;;15.07;13.48;;;;;;;21.26;64.71;98978.78;5150557;27;20047;-75
2023/06/08 08:56:25;;;;;;;16.83;14.02;;;;;;;21.30;64.58;98977.44;5150829;27;20035;-75
2023/06/08 08:58:53;;;;;;;14.80;13.30;;;;;;;21.31;64.29;98979.97;5149812;27;20342;-75
2023/06/08 09:01:20;;;;;;;15.23;13.73;;;;;;;20.91;64.13;98915.94;5149690;27;20299;-75
2023/06/08 09:03:47;;;;;;;15.35;12.48;;;;;;;21.35;64.17;98981.34;5149961;27;20031;-75
2023/06/08 09:06:14;;;;;;;13.70;12.25;;;;;;;21.22;64.08;98947.78;5149794;27;20344;-75
2023/06/08 09:08:42;;;;;;;13.98;12.60;;;;;;;21.40;63.92;98976.31;5150743;27;20051;-75
2023/06/08 09:11:09;;;;;;;12.23;10.80;;;;;;;;;;5149541;27;20295;-75
2023/06/08 09:13:38;;;;;;;12.25;11.05;;;;;;;21.48;63.60;98977.34;5150818;27;20045;-74
2023/06/08 09:16:12;;;;;;;14.55;11.73;;;;;;;21.16;61.89;98914.22;5151046;27;20047;-74
2023/06/08 09:18:39;;;;;;;11.88;10.65;;;;;;;21.61;63.02;98967.78;5150381;27;20236;-75
2023/06/08 09:21:22;;;;;;;14.77;11.50;;;;;;;21.68;61.53;98968.81;5150411;27;20047;-75
2023/06/08 09:24:08;;;;;;;13.48;12.07;;;;;;;21.74;60.59;98978.09;5150374;27;20039;-74
2023/06/08 09:26:36;;;;;;;14.10;12.80;;;;;;;21.56;62.22;98936.94;5150584;27;20099;-75
2023/06/08 09:29:04;;;;;;;12.43;11.13;;;;;;;21.76;62.23;98970.69;5150537;27;20035;-74
2023/06/08 09:31:31;;;;;;;12.57;11.35;;;;;;;21.84;62.24;98968.03;5149240;27;20043;-75
2023/06/08 09:34:12;;;;;;;13.10;11.85;;;;;;;21.94;59.85;98965.19;5150624;27;20055;-74
2023/06/08 09:36:38;;;;;;;15.05;11.50;;;;;;;22.02;61.53;98957.13;5149219;27;20035;-74
2023/06/08 09:39:08;;;;;;;11.45;10.25;;;;;;;21.94;60.37;98928.28;5150012;27;20100;-75
2023/06/08 09:41:37;;;;;;;12.35;11.02;;;;;;;20.85;60.34;98746.91;5150292;27;20195;-74
2023/06/08 09:44:18;;;;;;;11.38;10.18;;;;;;;22.16;59.09;98947.50;5150051;27;20059;-75
2023/06/08 09:46:46;;;;;;;11.98;10.77;;;;;;;22.24;60.36;98953.75;5149001;27;20311;-75
2023/06/08 09:49:14;;;;;;;11.43;10.23;;;;;;;22.30;60.02;98942.28;5150110;27;20039;-74
2023/06/08 09:51:49;;;;;;;10.40;9.45;;;;;;;22.37;59.40;98946.00;5150299;27;20050;-75
2023/06/08 09:54:19;;;;;;;12.52;10.18;;;;;;;22.52;59.67;98935.38;5148974;27;20122;-74
2023/06/08 09:56:50;;;;;;;10.85;9.85;;;;;;;22.60;59.39;98932.69;5149723;27;20118;-75
2023/06/08 09:59:18;;;;;;;9.77;8.77;;;;;;;22.29;59.41;98883.91;5149926;27;20202;-74
2023/06/08 10:01:49;;;;;;;10.75;9.73;;;;;;;22.59;58.66;98931.00;5149605;27;20035;-75
2023/06/08 10:04:23;;;;;;;11.70;10.50;;;;;;;22.44;57.99;98900.28;5148680;27;20073;-74
2023/06/08 10:06:54;;;;;;;10.13;9.13;;;;;;;22.64;58.23;98935.91;5149249;27;20194;-75
2023/06/08 10:09:28;;;;;;;9.85;8.55;;;;;;;22.73;57.50;98929.47;5149771;27;20035;-75
2023/06/08 10:11:57;;;;;;;11.07;9.85;;;;;;;21.22;58.31;98675.59;5149611;27;20034;-75
2023/06/08 10:14:25;;;;;;;9.82;8.93;;;;;;;22.88;58.49;98918.78;5149731;27;20144;-74
2023/06/08 10:16:53;;;;;;;10.43;9.40;;;;;;;22.71;58.02;98886.41;5149164;27;20050;-74
2023/06/08 10:19:21;;;;;;;9.10;8.20;;;;;;;22.94;57.84;98920.78;5149278;27;20078;-74
2023/06/08 10:21:49;;;;;;;9.38;8.45;;;;;;;23.01;57.79;98917.22;5149340;27;20043;-75
2023/06/08 10:24:16;;;;;;;8.95;8.05;;;;;;;23.07;57.32;98912.13;5148282;27;20039;-75
2023/06/08 10:26:46;;;;;;;10.75;8.85;;;;;;;23.02;57.15;98904.56;5149355;27;20287;-75
2023/06/08 10:29:12;;;;;;;9.82;8.93;;;;;;;23.03;57.12;98904.38;5148192;27;20039;-75
2023/06/08 10:31:40;;;;;;;12.35;9.43;;;;;;;23.06;56.98;98903.19;5148968;27;20043;-75
2023/06/08 10:34:12;;;;;;;9.75;8.85;;;;;;;23.05;54.99;98906.91;5148953;27;20049;-74
2023/06/08 10:36:41;;;;;;;7.63;6.88;;;;;;;23.02;57.04;98912.66;5148094;27;20031;-75
2023/06/08 10:39:10;;;;;;;9.30;8.40;;;;;;;22.76;57.04;98867.00;5148860;27;20092;-75
2023/06/08 10:41:39;;;;;;;8.60;7.80;;;;;;;22.55;56.69;98845.13;5149177;27;20187;-75
2023/06/08 10:44:23;;;;;;;8.98;8.10;;;;;;;22.96;56.61;98910.66;5148860;27;20088;-75
2023/06/08 10:46:56;;;;;;;9.52;8.05;;;;;;;22.93;56.02;98897.50;5148843;27;20303;-75
2023/06/08 10:49:22;;;;;;;9.00;8.10;;;;;;;22.97;56.60;98893.44;5147826;27;20035;-75
2023/06/08 10:51:54;;;;;;;9.52;7.07;;;;;;;22.99;55.53;98897.63;5148695;27;20059;-75
2023/06/08 10:54:22;;;;;;;7.90;7.10;;;;;;;23.06;56.18;98895.06;5148879;27;20051;-75
2023/06/08 10:56:52;;;;;;;7.03;6.35;;;;;;;23.04;56.29;98894.41;5148764;27;20057;-75
2023/06/08 10:59:23;;;;;;;9.13;7.53;;;;;;;23.01;55.42;98886.66;5148135;27;20039;-75
2023/06/08 11:01:50;;;;;;;8.27;7.47;;;;;;;23.01;56.54;98889.34;5148708;27;20243;-74
2023/06/08 11:04:17;;;;;;;8.65;7.75;;;;;;;22.71;56.58;98848.59;5147839;27;20241;-75
2023/06/08 11:06:44;;;;;;;9.25;8.35;;;;;;;22.76;56.47;98860.75;5148361;27;20081;-75
2023/06/08 11:09:11;;;;;;;7.90;7.20;;;;;;;22.94;56.55;98891.06;5148841;27;20057;-74
2023/06/08 11:11:50;;;;;;;9.30;8.40;;;;;;;22.86;54.31;98883.84;5148081;27;20046;-74
2023/06/08 11:14:21;;;;;;;9.50;8.57;;;;;;;22.77;55.63;98886.75;5147618;27;20039;-74
2023/06/08 11:16:52;;;;;;;8.55;7.68;;;;;;;22.68;56.37;98880.53;5148103;27;20084;-75
2023/06/08 11:19:19;;;;;;;8.57;7.75;;;;;;;22.63;56.91;98885.59;5148306;27;20042;-75
2023/06/08 11:21:47;;;;;;;9.90;8.90;;;;;;;21.84;57.92;98775.69;5147717;27;20106;-75
2023/06/08 11:24:16;;;;;;;10.75;9.65;;;;;;;22.49;58.34;98886.28;5148672;27;20031;-75
2023/06/08 11:26:43;;;;;;;11.45;10.30;;;;;;;22.43;59.03;98882.41;5146949;27;20311;-75
2023/06/08 11:29:09;;;;;;;12.00;10.88;;;;;;;22.01;59.36;98831.31;5146458;27;20047;-75
2023/06/08 11:31:40;;;;;;;12.27;10.75;;;;;;;22.25;59.66;98879.88;5147822;27;20198;-75
2023/06/08 11:34:08;;;;;;;11.57;10.48;;;;;;;22.18;59.88;98872.63;5148102;27;20128;-75